Time;durP1;ratioP1;P1;durP2;ratioP2;P2;SDS_P1;SDS_P2;PMS_P1;PMS_P2;Temp;Humidity;BMP_temperature;BMP_pressure;BME280_temperature;BME280_humidity;BME280_pressure;Samples;Min_cycle;Max_cycle;Signal;HPM_P1;HPM_P2
2021/05/25 00:02:02;;;;;;;3.00;1.20;;;;;;;12.69;83.81;101632.19;1638638;86;21163;-66
2021/05/25 00:04:29;;;;;;;1.80;1.02;;;;;;;12.66;83.79;101634.97;1665853;86;21157;-67
2021/05/25 00:06:55;;;;;;;3.27;1.02;;;;;;;12.61;83.88;101636.00;1664969;85;21696;-67
2021/05/25 00:09:22;;;;;;;10.85;1.07;;;;;;;12.58;83.91;101633.41;1677673;85;21075;-66
2021/05/25 00:11:51;;;;;;;9.13;1.30;;;;;;;12.56;83.97;101627.19;1676931;85;22296;-66
2021/05/25 00:14:20;;;;;;;2.10;1.17;;;;;;;12.53;84.08;101624.59;1677025;84;21385;-66
2021/05/25 00:16:51;;;;;;;9.00;1.40;;;;;;;12.49;84.38;101622.92;1676828;84;21506;-66
2021/05/25 00:19:20;;;;;;;4.78;1.57;;;;;;;12.45;84.70;101615.84;1676629;84;20999;-66
2021/05/25 00:21:46;;;;;;;5.37;1.30;;;;;;;12.41;84.99;101622.24;1676939;85;21654;-67
2021/05/25 00:24:13;;;;;;;4.30;1.20;;;;;;;12.38;85.16;101619.64;1677063;84;21550;-66
2021/05/25 00:26:40;;;;;;;9.00;6.37;;;;;;;12.37;85.39;101613.84;1676963;85;21090;-67
2021/05/25 00:29:07;;;;;;;9.63;6.28;;;;;;;12.36;85.51;101610.74;1675604;84;21113;-65
2021/05/25 00:31:33;;;;;;;10.78;7.28;;;;;;;12.30;85.72;101605.97;1661276;86;21760;-66
2021/05/25 00:34:00;;;;;;;5.42;3.40;;;;;;;12.27;85.88;101604.72;1648627;86;21194;-67
2021/05/25 00:36:27;;;;;;;3.95;1.87;;;;;;;12.26;86.02;101608.30;1649025;86;21169;-66
2021/05/25 00:38:54;;;;;;;6.42;1.98;;;;;;;12.24;86.17;101612.84;1661600;86;21252;-66
2021/05/25 00:41:21;;;;;;;3.05;1.32;;;;;;;12.22;86.34;101616.04;1661397;86;21980;-66
2021/05/25 00:43:49;;;;;;;4.05;1.17;;;;;;;12.21;86.48;101614.28;1670879;84;21018;-66
2021/05/25 00:46:16;;;;;;;5.08;1.32;;;;;;;12.19;86.48;101620.16;1679810;85;21604;-67
2021/05/25 00:48:44;;;;;;;5.45;1.87;;;;;;;12.18;86.66;101621.09;1667723;85;20993;-66
2021/05/25 00:51:11;;;;;;;9.18;1.82;;;;;;;12.16;86.84;101628.31;1697526;84;21117;-67
2021/05/25 00:53:39;;;;;;;8.55;1.90;;;;;;;12.16;87.06;101633.70;1667951;85;21814;-66
2021/05/25 00:56:06;;;;;;;5.08;2.12;;;;;;;12.16;87.17;101626.97;1697568;84;21095;-66
2021/05/25 00:58:34;;;;;;;6.20;2.20;;;;;;;12.14;87.40;101625.66;1654294;85;21486;-70
2021/05/25 01:01:01;;;;;;;7.70;2.30;;;;;;;12.13;87.42;101616.31;1676822;85;21115;-66
2021/05/25 01:03:28;;;;;;;4.53;1.90;;;;;;;12.09;87.46;101622.22;1676997;84;21106;-67
2021/05/25 01:05:55;;;;;;;6.22;1.77;;;;;;;12.06;87.57;101625.48;1674195;84;21220;-66
2021/05/25 01:08:22;;;;;;;5.30;1.70;;;;;;;12.03;87.99;101633.15;1677904;84;21129;-66
2021/05/25 01:10:53;;;;;;;5.42;1.70;;;;;;;12.01;87.97;101639.89;1692468;84;21104;-67
2021/05/25 01:13:21;;;;;;;6.72;1.80;;;;;;;11.99;87.97;101637.68;1692121;83;21164;-67
2021/05/25 01:15:48;;;;;;;5.22;1.70;;;;;;;11.97;88.26;101645.38;1692324;84;21096;-66
2021/05/25 01:18:15;;;;;;;6.60;1.62;;;;;;;11.96;88.28;101647.66;1692366;84;22004;-67
2021/05/25 01:20:46;;;;;;;5.83;1.30;;;;;;;11.93;88.38;101648.60;1692092;84;21156;-66
2021/05/25 01:23:13;;;;;;;6.37;1.35;;;;;;;11.90;88.48;101640.63;1692296;84;21140;-67
2021/05/25 01:25:45;;;;;;;2.75;1.20;;;;;;;11.87;88.64;101640.71;1692268;84;21105;-64
2021/05/25 01:28:13;;;;;;;2.87;1.40;;;;;;;11.83;88.80;101639.03;1664478;84;21249;-64
2021/05/25 01:30:42;;;;;;;5.65;1.50;;;;;;;11.82;89.10;101634.55;1660482;86;21615;-65
2021/05/25 01:33:09;;;;;;;2.25;1.10;;;;;;;11.79;89.44;101631.95;1659820;86;21101;-64
2021/05/25 01:35:36;;;;;;;2.83;1.02;;;;;;;11.78;89.59;101630.19;1660559;85;21024;-62
2021/05/25 01:38:05;;;;;;;3.85;1.12;;;;;;;11.75;89.53;101623.97;1659629;86;21144;-65
2021/05/25 01:40:32;;;;;;;3.83;1.50;;;;;;;11.73;89.59;101627.64;1660143;86;21084;-65
2021/05/25 01:42:58;;;;;;;1.70;1.10;;;;;;;11.69;89.65;101629.52;1660022;86;21160;-63
2021/05/25 01:45:30;;;;;;;2.75;1.10;;;;;;;11.69;89.75;101628.17;1688267;84;21064;-64
2021/05/25 01:47:58;;;;;;;2.08;1.42;;;;;;;11.67;89.89;101620.61;1661360;85;21444;-64
2021/05/25 01:50:25;;;;;;;3.95;1.30;;;;;;;11.67;90.18;101613.90;1661664;85;21071;-63
2021/05/25 01:53:13;;;;;;;10.50;1.65;;;;;;;11.69;90.27;101613.39;1661651;85;21108;-63
2021/05/25 01:55:49;;;;;;;6.08;1.82;;;;;;;11.71;90.39;101615.58;1669583;85;21510;-64
2021/05/25 01:58:27;;;;;;;5.55;1.90;;;;;;;11.72;90.40;101613.31;1685629;84;21077;-63
2021/05/25 02:01:03;;;;;;;4.00;1.37;;;;;;;11.73;90.42;101612.39;1685730;84;21097;-63
2021/05/25 02:03:30;;;;;;;5.80;1.45;;;;;;;11.73;90.45;101611.05;1685590;84;21116;-65
2021/05/25 02:05:57;;;;;;;4.97;1.30;;;;;;;11.71;90.36;101614.23;1685397;82;21645;-63
2021/05/25 02:08:24;;;;;;;4.92;1.15;;;;;;;11.70;90.28;101626.34;1679365;84;21517;-64
2021/05/25 02:10:55;;;;;;;5.67;1.20;;;;;;;11.67;90.21;101634.05;1671955;84;21560;-63
2021/05/25 02:13:31;;;;;;;4.95;1.30;;;;;;;11.63;90.34;101625.65;1671704;85;21978;-65
2021/05/25 02:16:01;;;;;;;2.52;1.17;;;;;;;11.60;90.39;101631.07;1671823;84;21553;-62
2021/05/25 02:18:30;;;;;;;5.70;1.52;;;;;;;11.58;90.34;101619.04;1671782;85;21151;-62
2021/05/25 02:21:01;;;;;;;5.30;1.72;;;;;;;11.58;90.44;101618.14;1671847;84;21143;-62
2021/05/25 02:23:28;;;;;;;4.72;1.75;;;;;;;11.62;90.50;101613.14;1673123;84;21044;-64
2021/05/25 02:25:55;;;;;;;9.58;2.40;;;;;;;11.71;90.29;101614.23;1675935;85;21113;-63
2021/05/25 02:28:23;;;;;;;9.55;2.58;;;;;;;11.81;89.96;101612.64;1676083;85;21185;-64
2021/05/25 02:30:50;;;;;;;5.22;2.20;;;;;;;11.89;89.53;101617.36;1676377;83;21102;-64
2021/05/25 02:33:19;;;;;;;5.58;2.02;;;;;;;11.95;89.09;101617.67;1676080;84;21121;-63
2021/05/25 02:35:46;;;;;;;3.40;1.80;;;;;;;11.98;88.72;101614.42;1676679;85;21078;-64
2021/05/25 02:38:13;;;;;;;6.58;1.98;;;;;;;12.01;88.46;101611.67;1676095;85;21137;-64
2021/05/25 02:40:45;;;;;;;3.92;1.87;;;;;;;12.05;88.11;101609.80;1676460;83;21034;-64
2021/05/25 02:43:12;;;;;;;8.70;2.08;;;;;;;12.08;87.86;101603.47;1675992;83;21121;-64
2021/05/25 02:45:39;;;;;;;5.22;1.60;;;;;;;12.12;87.63;101597.08;1707478;83;21108;-64
2021/05/25 02:48:07;;;;;;;6.67;1.60;;;;;;;12.14;87.24;101596.09;1676089;85;21116;-63
2021/05/25 02:50:33;;;;;;;4.75;2.15;;;;;;;12.15;86.87;101592.47;1676886;84;20994;-63
2021/05/25 02:53:00;;;;;;;11.43;5.17;;;;;;;12.10;86.69;101587.69;1688345;83;21088;-65
2021/05/25 02:55:30;;;;;;;6.22;3.20;;;;;;;12.09;86.89;101589.09;1703997;83;21674;-63
2021/05/25 02:57:57;;;;;;;20.25;2.72;;;;;;;12.10;87.08;101577.42;1704129;83;21091;-63
2021/05/25 03:00:37;;;;;;;10.88;2.30;;;;;;;12.12;87.35;101582.28;1704288;83;21046;-64
2021/05/25 03:03:04;;;;;;;20.65;1.90;;;;;;;12.17;87.88;101580.34;1704103;84;21256;-63
2021/05/25 03:05:30;;;;;;;19.87;2.02;;;;;;;12.21;87.96;101576.63;1704045;83;22078;-65
2021/05/25 03:08:00;;;;;;;7.25;5.35;;;;;;;12.25;87.85;101587.72;1685179;83;21092;-63
2021/05/25 03:10:31;;;;;;;13.78;7.17;;;;;;;12.35;86.79;101596.88;1671698;85;21127;-64
2021/05/25 03:12:58;;;;;;;19.52;12.58;;;;;;;12.41;86.14;101592.66;1672151;85;21143;-64
2021/05/25 03:15:30;;;;;;;29.50;18.35;;;;;;;12.49;85.93;101600.51;1672032;84;21080;-63
2021/05/25 03:17:58;;;;;;;19.70;13.62;;;;;;;12.59;85.63;101591.22;1671544;85;21063;-66
2021/05/25 03:20:25;;;;;;;21.87;15.95;;;;;;;12.72;84.74;101598.48;1671843;84;21139;-65
2021/05/25 03:22:52;;;;;;;23.73;16.02;;;;;;;12.82;84.21;101596.36;1676770;84;21761;-64
2021/05/25 03:25:19;;;;;;;17.75;12.43;;;;;;;12.89;83.61;101588.05;1676098;85;21717;-66
2021/05/25 03:27:46;;;;;;;15.60;7.20;;;;;;;12.95;83.26;101592.86;1676494;85;21081;-64
2021/05/25 03:30:17;;;;;;;8.15;3.70;;;;;;;12.99;83.15;101600.77;1676332;84;21124;-65
2021/05/25 03:32:43;;;;;;;8.90;2.00;;;;;;;13.03;83.04;101600.21;1676292;85;21515;-65
2021/05/25 03:35:12;;;;;;;6.33;1.87;;;;;;;13.06;82.88;101588.00;1675969;85;23115;-65
2021/05/25 03:37:39;;;;;;;12.88;1.95;;;;;;;13.15;82.68;101587.72;1676753;85;21185;-65
2021/05/25 03:40:10;;;;;;;11.57;2.10;;;;;;;13.25;82.59;101573.94;1676024;83;21128;-64
2021/05/25 03:42:37;;;;;;;17.95;2.25;;;;;;;13.37;82.23;101581.59;1676705;85;21037;-64
2021/05/25 03:45:06;;;;;;;14.55;2.22;;;;;;;13.51;81.60;101582.98;1669411;83;21773;-65
2021/05/25 03:47:33;;;;;;;23.25;2.52;;;;;;;13.65;81.38;101586.09;1668077;85;21531;-64
2021/05/25 03:50:07;;;;;;;4.08;1.90;;;;;;;13.81;80.52;101583.73;1652886;86;21552;-64
2021/05/25 03:52:28;;;;;;;18.60;2.90;;;;;;;13.94;80.12;101588.22;1654545;84;21118;-64
2021/05/25 03:54:59;;;;;;;15.03;2.50;;;;;;;14.01;79.76;101577.62;1656370;84;21098;-65
2021/05/25 03:59:56;;;;;;;11.12;3.12;;;;;;;14.20;79.52;101570.69;1656504;84;21819;-66
2021/05/25 04:02:23;;;;;;;7.03;2.40;;;;;;;14.31;78.61;101581.48;1656642;84;21611;-64
2021/05/25 04:04:49;;;;;;;11.88;2.70;;;;;;;14.43;78.47;101572.50;1656557;86;21139;-65
2021/05/25 04:07:16;;;;;;;5.78;2.40;;;;;;;14.52;77.93;101589.70;1647703;86;21731;-64
2021/05/25 04:09:43;;;;;;;13.88;2.37;;;;;;;14.57;77.66;101591.76;1650210;85;21145;-65
2021/05/25 04:12:10;;;;;;;7.25;3.02;;;;;;;14.63;77.94;101581.66;1678771;83;21215;-65
2021/05/25 04:14:37;;;;;;;7.83;2.67;;;;;;;14.68;77.89;101585.05;1678973;84;21690;-64
2021/05/25 04:17:04;;;;;;;8.70;2.10;;;;;;;14.74;78.02;101590.27;1678829;83;21537;-63
2021/05/25 04:19:31;;;;;;;6.85;2.22;;;;;;;14.82;77.78;101597.58;1652572;85;21071;-65
2021/05/25 04:21:57;;;;;;;7.80;2.30;;;;;;;14.93;77.65;101586.35;1705019;82;21085;-66
2021/05/25 04:24:24;;;;;;;12.03;1.90;;;;;;;15.09;77.29;101584.39;1709472;83;21105;-66
2021/05/25 04:26:51;;;;;;;14.70;2.02;;;;;;;15.21;75.84;101589.27;1709216;83;21156;-64
2021/05/25 04:29:17;;;;;;;21.73;2.10;;;;;;;15.27;75.14;101596.25;1709298;83;21622;-65
2021/05/25 04:31:44;;;;;;;7.12;1.80;;;;;;;15.26;75.10;101596.73;1709337;83;22137;-64
2021/05/25 04:34:11;;;;;;;11.10;1.80;;;;;;;15.22;75.39;101595.57;1709229;82;21121;-66
2021/05/25 04:36:37;;;;;;;10.00;2.10;;;;;;;15.18;75.38;101586.25;1709221;83;21100;-63
2021/05/25 04:39:04;;;;;;;12.82;2.50;;;;;;;15.20;75.57;101588.00;1709139;83;21069;-64
2021/05/25 04:41:30;;;;;;;15.10;2.62;;;;;;;15.21;75.26;101571.71;1709282;83;21112;-64
2021/05/25 04:43:57;;;;;;;11.03;2.70;;;;;;;15.18;75.52;101568.69;1699535;83;21117;-64
2021/05/25 04:46:24;;;;;;;12.25;2.30;;;;;;;15.10;75.39;101576.20;1674683;85;21054;-65
2021/05/25 04:48:51;;;;;;;17.80;2.58;;;;;;;15.03;75.57;101600.36;1674707;84;21180;-65
2021/05/25 04:51:17;;;;;;;10.15;2.58;;;;;;;14.99;75.95;101601.44;1655652;85;21119;-63
2021/05/25 04:53:44;;;;;;;4.58;1.82;;;;;;;14.94;76.31;101609.70;1629028;86;21092;-63
2021/05/25 04:56:10;;;;;;;2.58;1.60;;;;;;;14.92;75.89;101612.05;1649380;86;21432;-64
2021/05/25 04:58:37;;;;;;;5.72;1.80;;;;;;;14.90;75.98;101596.80;1676135;83;21082;-66
2021/05/25 05:01:05;;;;;;;8.25;1.90;;;;;;;14.89;76.09;101586.93;1629217;86;21256;-65
2021/05/25 05:03:31;;;;;;;6.15;2.42;;;;;;;14.90;76.20;101602.19;1657287;86;21095;-66
2021/05/25 05:05:58;;;;;;;4.83;2.00;;;;;;;14.93;76.53;101594.94;1628901;86;21088;-65
2021/05/25 05:08:24;;;;;;;9.10;2.60;;;;;;;14.95;76.52;101606.55;1655648;86;21856;-66
2021/05/25 05:10:51;;;;;;;7.85;2.17;;;;;;;14.95;76.60;101595.75;1638748;87;21178;-63
2021/05/25 05:13:19;;;;;;;6.35;2.02;;;;;;;15.00;76.93;101605.41;1638835;87;21569;-65
2021/05/25 05:15:46;;;;;;;2.37;1.80;;;;;;;15.06;76.79;101621.84;1638876;85;21101;-65
2021/05/25 05:18:13;;;;;;;6.10;2.00;;;;;;;15.12;76.56;101625.64;1691571;84;21524;-65
2021/05/25 05:20:40;;;;;;;5.87;2.10;;;;;;;15.10;76.73;101621.26;1695525;83;21467;-66
2021/05/25 05:23:07;;;;;;;3.10;1.98;;;;;;;15.05;76.88;101630.89;1631497;86;21142;-66
2021/05/25 05:25:33;;;;;;;3.50;2.08;;;;;;;15.06;77.08;101622.33;1631544;86;21175;-66
2021/05/25 05:28:00;;;;;;;5.47;2.10;;;;;;;15.02;77.08;101626.96;1647690;85;21092;-66
2021/05/25 05:30:26;;;;;;;6.42;1.95;;;;;;;14.97;77.32;101612.77;1660270;86;21099;-66
2021/05/25 05:32:53;;;;;;;4.25;2.47;;;;;;;14.95;77.76;101616.00;1660012;86;21132;-65
2021/05/25 05:35:19;;;;;;;3.37;2.30;;;;;;;14.96;77.98;101611.88;1660071;86;21198;-66
2021/05/25 05:37:46;;;;;;;4.65;2.50;;;;;;;14.97;78.29;101614.13;1672516;83;21204;-65
2021/05/25 05:40:15;;;;;;;4.80;2.77;;;;;;;14.99;78.41;101618.98;1688284;84;21120;-64
2021/05/25 05:42:41;;;;;;;3.92;2.37;;;;;;;15.00;78.86;101607.24;1673936;85;21128;-66
2021/05/25 05:45:10;;;;;;;4.15;3.08;;;;;;;15.11;78.85;101613.08;1691914;83;21086;-65
2021/05/25 05:47:36;;;;;;;7.17;2.87;;;;;;;15.23;78.90;101605.43;1706591;83;21260;-65
2021/05/25 05:50:10;;;;;;;2.87;2.20;;;;;;;15.40;78.65;101621.83;1629872;86;21652;-65
2021/05/25 05:52:34;;;;;;;6.15;2.67;;;;;;;15.63;77.97;101613.69;1651571;84;21109;-65
2021/05/25 05:55:01;;;;;;;6.67;2.92;;;;;;;15.89;76.68;101626.13;1644550;84;21153;-65
2021/05/25 05:57:27;;;;;;;9.10;2.90;;;;;;;16.06;75.71;101610.98;1696664;83;21142;-66
2021/05/25 05:59:54;;;;;;;6.42;3.30;;;;;;;16.22;75.54;101609.81;1668894;84;21114;-65
2021/05/25 06:02:21;;;;;;;4.95;3.10;;;;;;;16.37;75.06;101593.35;1644040;85;21651;-65
2021/05/25 06:04:48;;;;;;;5.42;3.37;;;;;;;16.42;74.40;101599.42;1646190;84;21128;-64
2021/05/25 06:07:14;;;;;;;11.38;3.40;;;;;;;16.37;74.31;101590.64;1639752;85;21186;-66
2021/05/25 06:09:41;;;;;;;7.70;3.72;;;;;;;16.32;74.74;101600.32;1655127;86;21512;-66
2021/05/25 06:12:09;;;;;;;5.75;3.58;;;;;;;16.33;74.58;101609.73;1651503;84;21066;-66
2021/05/25 06:14:37;;;;;;;9.73;3.77;;;;;;;16.33;74.82;101598.91;1667512;85;21108;-66
2021/05/25 06:17:04;;;;;;;6.62;4.40;;;;;;;16.38;74.65;101588.34;1634294;86;21510;-67
2021/05/25 06:19:30;;;;;;;7.87;4.78;;;;;;;16.37;74.71;101598.77;1668337;84;21148;-66
2021/05/25 06:21:56;;;;;;;8.55;5.70;;;;;;;16.38;74.83;101596.46;1662403;83;21121;-68
2021/05/25 06:24:23;;;;;;;8.13;5.90;;;;;;;16.41;74.61;101594.96;1665805;84;21374;-66
2021/05/25 06:26:50;;;;;;;7.62;4.50;;;;;;;16.39;74.75;101596.86;1665298;84;21214;-68
2021/05/25 06:29:17;;;;;;;5.83;3.98;;;;;;;16.36;74.90;101603.77;1675866;84;21076;-66
2021/05/25 06:31:44;;;;;;;5.47;4.08;;;;;;;16.32;74.93;101605.27;1668546;84;21681;-68
2021/05/25 06:34:11;;;;;;;5.20;4.30;;;;;;;16.31;74.99;101610.73;1674389;83;21117;-67
2021/05/25 06:36:38;;;;;;;7.33;4.30;;;;;;;16.33;75.33;101624.62;1662142;83;21062;-67
2021/05/25 06:39:05;;;;;;;5.85;3.90;;;;;;;16.40;75.09;101625.68;1661639;84;21145;-67
2021/05/25 06:41:32;;;;;;;4.70;3.67;;;;;;;16.37;75.06;101625.83;1695959;83;21177;-68
2021/05/25 06:43:59;;;;;;;5.80;3.25;;;;;;;16.31;75.14;101617.50;1687898;82;21353;-67
2021/05/25 06:46:25;;;;;;;3.95;3.17;;;;;;;16.29;75.28;101610.83;1658352;84;21128;-68
2021/05/25 06:48:52;;;;;;;4.87;3.50;;;;;;;16.26;75.33;101621.80;1661193;84;21075;-68
2021/05/25 06:51:18;;;;;;;4.67;3.62;;;;;;;16.23;75.68;101613.79;1663160;83;21024;-68
2021/05/25 06:53:46;;;;;;;4.78;3.12;;;;;;;16.28;75.79;101628.02;1668196;84;21163;-67
2021/05/25 06:56:13;;;;;;;6.60;3.60;;;;;;;16.37;75.78;101624.47;1669317;84;21057;-66
2021/05/25 06:58:40;;;;;;;6.30;3.22;;;;;;;16.51;75.43;101604.42;1629387;85;21135;-67
2021/05/25 07:01:06;;;;;;;4.70;3.12;;;;;;;16.63;75.26;101609.75;1664456;84;21133;-67
2021/05/25 07:03:33;;;;;;;6.15;3.35;;;;;;;16.78;74.89;101611.30;1672459;84;22339;-68
2021/05/25 07:05:59;;;;;;;5.50;3.58;;;;;;;16.89;74.30;101617.96;1661782;84;21086;-68
2021/05/25 07:08:27;;;;;;;5.10;3.22;;;;;;;16.97;74.25;101615.38;1669603;84;21114;-68
2021/05/25 07:10:53;;;;;;;5.83;3.47;;;;;;;17.11;73.66;101621.02;1666807;84;21148;-67
2021/05/25 07:13:20;;;;;;;5.22;3.47;;;;;;;17.23;73.40;101614.61;1666662;84;21160;-67
2021/05/25 07:15:48;;;;;;;6.37;2.90;;;;;;;17.28;72.84;101615.25;1654524;85;22126;-66
2021/05/25 07:18:18;;;;;;;3.77;3.00;;;;;;;17.28;72.82;101620.22;1643418;85;21138;-67
2021/05/25 07:20:48;;;;;;;9.78;3.02;;;;;;;17.40;72.65;101609.70;1663821;84;22165;-66
2021/05/25 07:23:14;;;;;;;8.60;3.27;;;;;;;17.54;71.77;101611.70;1704380;83;21164;-66
2021/05/25 07:25:40;;;;;;;6.12;3.37;;;;;;;17.59;71.33;101603.75;1634606;85;21694;-66
2021/05/25 07:28:08;;;;;;;7.20;3.80;;;;;;;17.63;71.09;101604.48;1650021;85;21130;-66
2021/05/25 07:30:36;;;;;;;7.35;4.17;;;;;;;17.67;71.25;101606.06;1649662;85;21129;-68
2021/05/25 07:33:03;;;;;;;9.50;4.37;;;;;;;17.78;70.48;101601.91;1657340;85;21176;-67
2021/05/25 07:35:30;;;;;;;6.33;4.35;;;;;;;17.79;70.09;101603.66;1647953;85;21550;-67
2021/05/25 07:37:58;;;;;;;6.12;4.70;;;;;;;17.74;70.06;101601.21;1665071;84;21081;-65
2021/05/25 07:40:25;;;;;;;9.10;5.12;;;;;;;17.70;70.20;101595.06;1667369;84;21688;-66
2021/05/25 07:42:52;;;;;;;10.60;5.03;;;;;;;17.72;70.19;101597.20;1699549;83;21154;-66
2021/05/25 07:45:21;;;;;;;10.53;5.90;;;;;;;17.81;70.08;101590.92;1631826;86;21206;-67
2021/05/25 07:47:48;;;;;;;5.65;4.85;;;;;;;17.81;69.69;101586.86;1655098;85;21212;-67
2021/05/25 07:50:15;;;;;;;7.55;5.37;;;;;;;17.75;69.95;101598.40;1653278;85;21140;-68
2021/05/25 07:52:46;;;;;;;6.50;4.65;;;;;;;17.71;70.17;101599.52;1671316;84;21180;-67
2021/05/25 07:55:13;;;;;;;9.90;4.80;;;;;;;17.69;70.13;101594.66;1652983;85;21196;-67
2021/05/25 07:57:40;;;;;;;5.15;4.60;;;;;;;17.68;70.00;101615.06;1664913;84;21619;-67
2021/05/25 08:00:14;;;;;;;6.33;4.65;;;;;;;17.62;69.90;101623.06;1631053;85;21614;-67
2021/05/25 08:02:43;;;;;;;9.43;4.75;;;;;;;17.57;69.98;101628.70;1659276;84;21061;-67
2021/05/25 08:05:11;;;;;;;5.45;4.17;;;;;;;17.54;70.31;101613.06;1656253;84;21196;-66
2021/05/25 08:07:38;;;;;;;5.80;4.47;;;;;;;17.54;70.43;101614.42;1657083;84;21035;-67
2021/05/25 08:10:07;;;;;;;5.42;4.03;;;;;;;17.54;70.25;101615.77;1644763;85;21640;-66
2021/05/25 08:12:33;;;;;;;6.20;3.90;;;;;;;17.46;70.46;101612.98;1648622;85;21112;-66
2021/05/25 08:15:02;;;;;;;6.83;4.00;;;;;;;17.45;70.86;101611.23;1684524;83;21098;-67
2021/05/25 08:20:17;;;;;;;5.90;3.98;;;;;;;17.52;70.47;101612.27;1689456;83;21598;-65
2021/05/25 08:22:52;;;;;;;4.83;3.60;;;;;;;17.49;70.67;101605.65;1683005;83;21029;-64
2021/05/25 08:25:28;;;;;;;7.83;4.20;;;;;;;17.41;70.72;101600.14;1684489;83;21201;-65
2021/05/25 08:27:52;;;;;;;7.42;4.53;;;;;;;17.38;71.19;101607.08;1688377;83;21133;-66
2021/05/25 08:32:48;;;;;;;5.70;4.72;;;;;;;17.47;71.17;101620.66;1828387;78;22761;-63
2021/05/25 08:35:19;;;;;;;7.12;5.42;;;;;;;17.41;70.57;101612.80;1738100;80;21093;-66
2021/05/25 08:37:59;;;;;;;5.70;4.80;;;;;;;17.31;70.48;101600.19;1730702;82;21124;-64
2021/05/25 08:40:28;;;;;;;6.95;4.67;;;;;;;17.20;70.90;101599.86;1734648;81;21548;-65
2021/05/25 08:42:55;;;;;;;8.20;4.53;;;;;;;17.14;71.27;101608.70;1729670;81;21043;-68
2021/05/25 08:45:23;;;;;;;6.12;4.80;;;;;;;17.15;71.35;101614.98;1732851;81;21424;-64
2021/05/25 08:47:51;;;;;;;6.40;4.97;;;;;;;17.13;71.47;101611.47;1731257;81;21002;-68
2021/05/25 08:50:21;;;;;;;5.70;4.60;;;;;;;17.10;71.63;101612.48;1736198;81;21081;-65
2021/05/25 08:52:48;;;;;;;5.78;4.75;;;;;;;17.09;71.99;101621.58;1737369;81;21113;-63
2021/05/25 08:55:15;;;;;;;6.28;4.75;;;;;;;17.08;72.17;101613.05;1735671;81;21515;-66
2021/05/25 08:57:43;;;;;;;5.53;4.33;;;;;;;17.06;72.42;101614.95;1736050;81;21417;-65
2021/05/25 09:00:13;;;;;;;6.45;4.35;;;;;;;17.07;72.70;101616.71;1761973;80;21089;-66
2021/05/25 09:02:39;;;;;;;6.25;4.72;;;;;;;17.11;72.82;101608.83;1760077;80;21044;-66
2021/05/25 09:05:11;;;;;;;5.20;4.10;;;;;;;17.12;72.58;101602.45;1759370;80;21098;-65
2021/05/25 09:07:46;;;;;;;5.62;4.35;;;;;;;17.12;72.65;101598.39;1751143;80;21078;-64
2021/05/25 09:10:22;;;;;;;5.75;3.95;;;;;;;17.17;72.67;101604.95;1706150;81;20936;-65
2021/05/25 09:12:52;;;;;;;4.67;3.98;;;;;;;17.24;72.68;101602.81;1730876;81;20983;-65
2021/05/25 09:15:37;;;;;;;5.25;4.03;;;;;;;17.31;72.29;101613.74;1727136;81;21567;-64
2021/05/25 09:18:19;;;;;;;5.67;3.92;;;;;;;17.38;72.07;101615.67;1726182;81;21328;-64
2021/05/25 09:21:20;;;;;;;6.70;4.17;;;;;;;17.45;71.85;101612.58;1732080;81;21631;-63
2021/05/25 09:23:47;;;;;;;5.47;3.92;;;;;;;17.45;71.76;101603.55;1665845;84;21165;-67
2021/05/25 09:26:43;;;;;;;6.85;4.08;;;;;;;17.44;71.95;101606.77;1699462;83;21036;-67
2021/05/25 09:29:09;;;;;;;5.72;3.92;;;;;;;17.49;71.91;101596.16;1665981;84;21155;-64
2021/05/25 09:31:40;;;;;;;4.90;4.40;;;;;;;17.58;71.77;101601.12;1664716;84;21047;-65
2021/05/25 09:34:16;;;;;;;5.80;4.28;;;;;;;17.59;71.40;101603.75;1701511;83;21544;-64
2021/05/25 09:37:04;;;;;;;5.33;4.40;;;;;;;17.57;71.64;101590.75;1678161;84;21500;-65
2021/05/25 09:39:42;;;;;;;6.58;4.33;;;;;;;17.60;71.55;101585.66;1701259;82;21655;-67
2021/05/25 09:42:11;;;;;;;6.95;3.92;;;;;;;17.55;71.61;101589.06;1674731;84;21837;-64
2021/05/25 09:45:00;;;;;;;6.22;4.60;;;;;;;17.52;71.95;101591.93;1702950;82;21112;-65
2021/05/25 09:47:34;;;;;;;6.03;5.15;;;;;;;17.47;72.02;101590.34;1699032;84;21543;-66
2021/05/25 09:50:02;;;;;;;;;;;;;;;17.43;72.10;101586.03;1675941;84;21257;-64
2021/05/25 09:52:29;;;;;;;6.87;5.10;;;;;;;17.41;72.64;101577.11;1670840;84;20533;-64
2021/05/25 09:55:10;;;;;;;11.38;5.20;;;;;;;17.47;72.42;101572.72;1669589;84;21542;-63
2021/05/25 09:57:52;;;;;;;8.30;5.35;;;;;;;17.49;72.25;101575.83;1666535;84;20993;-66
2021/05/25 10:00:34;;;;;;;7.90;4.87;;;;;;;17.37;72.33;101560.61;1698844;83;21101;-64
2021/05/25 10:03:13;;;;;;;5.15;4.65;;;;;;;17.31;73.06;101564.95;1682577;83;20942;-66
2021/05/25 10:05:48;;;;;;;6.22;5.08;;;;;;;17.36;73.27;101575.11;1665913;85;21780;-64
2021/05/25 10:08:16;;;;;;;;;;;;;;;17.42;72.99;101573.44;1697614;82;21052;-67
2021/05/25 10:10:44;;;;;;;6.05;4.83;;;;;;;17.44;72.88;101567.45;1655582;84;20322;-66
2021/05/25 10:13:12;;;;;;;6.85;5.50;;;;;;;17.43;73.16;101562.99;1669372;84;21517;-64
2021/05/25 10:15:42;;;;;;;6.05;4.95;;;;;;;17.39;73.06;101560.51;1672807;85;21002;-67
2021/05/25 10:18:17;;;;;;;7.72;5.45;;;;;;;17.35;73.24;101551.64;1701454;82;20953;-65
2021/05/25 10:20:53;;;;;;;6.65;5.33;;;;;;;17.37;73.39;101544.34;1701835;83;21147;-66
2021/05/25 10:23:33;;;;;;;6.17;4.90;;;;;;;17.33;73.74;101542.72;1694857;84;20966;-66
2021/05/25 10:25:58;;;;;;;8.55;5.55;;;;;;;17.27;73.75;101533.55;1693755;82;21607;-66
2021/05/25 10:28:25;;;;;;;8.03;5.58;;;;;;;17.21;73.99;101516.27;1691877;83;21038;-66
2021/05/25 10:30:52;;;;;;;6.03;5.25;;;;;;;17.21;74.30;101508.13;1692272;83;21078;-66
2021/05/25 10:33:21;;;;;;;6.28;5.65;;;;;;;17.24;74.53;101521.06;1693224;84;21148;-66
2021/05/25 10:36:05;;;;;;;8.00;5.33;;;;;;;17.24;74.28;101516.09;1691733;83;21121;-65
2021/05/25 10:38:50;;;;;;;6.67;5.53;;;;;;;17.23;74.36;101522.48;1686404;82;21133;-66
2021/05/25 10:41:35;;;;;;;6.70;5.47;;;;;;;17.22;74.46;101521.58;1698508;83;21506;-66
2021/05/25 10:44:01;;;;;;;7.50;5.28;;;;;;;17.22;74.82;101509.88;1676500;84;21549;-65
2021/05/25 10:46:30;;;;;;;8.23;6.05;;;;;;;17.18;74.96;101484.77;1683359;83;21732;-66
2021/05/25 10:51:54;;;;;;;8.08;6.47;;;;;;;17.14;75.30;101494.91;1694140;82;21505;-66
2021/05/25 10:54:34;;;;;;;7.58;6.30;;;;;;;17.22;75.56;101497.69;1694126;82;21213;-66
2021/05/25 10:57:04;;;;;;;7.35;6.20;;;;;;;17.31;75.17;101493.14;1695541;82;21108;-66
2021/05/25 10:59:27;;;;;;;7.60;5.97;;;;;;;17.34;75.02;101494.33;1705775;82;21163;-64
2021/05/25 11:01:58;;;;;;;6.42;5.50;;;;;;;17.35;74.94;101486.59;1701403;82;20933;-65
2021/05/25 11:04:36;;;;;;;8.45;6.10;;;;;;;17.37;75.06;101494.66;1693241;84;21107;-65
2021/05/25 11:07:41;;;;;;;7.53;5.80;;;;;;;17.43;74.92;101488.45;1698986;82;21112;-66
2021/05/25 11:10:32;;;;;;;7.40;5.87;;;;;;;17.52;74.78;101484.84;1683016;83;21038;-69
2021/05/25 11:13:28;;;;;;;8.43;6.55;;;;;;;17.53;74.37;101486.59;1679213;84;21168;-67
2021/05/25 11:16:13;;;;;;;7.17;5.70;;;;;;;17.47;74.56;101485.11;1670840;84;24619;-67
2021/05/25 11:19:19;;;;;;;6.97;5.60;;;;;;;17.46;74.46;101482.86;1665827;84;20970;-67
2021/05/25 11:21:48;;;;;;;6.90;5.80;;;;;;;17.45;74.66;101489.24;1666667;84;20947;-68
2021/05/25 11:27:12;;;;;;;6.67;4.87;;;;;;;17.53;74.45;101486.59;1668632;84;21504;-67
2021/05/25 11:29:54;;;;;;;6.23;4.87;;;;;;;17.58;74.45;101483.19;1699482;83;21084;-68
2021/05/25 11:32:39;;;;;;;8.35;6.05;;;;;;;17.65;74.31;101479.18;1696895;83;22589;-68
2021/05/25 11:35:22;;;;;;;5.85;4.95;;;;;;;17.69;73.95;101468.56;1699248;83;21138;-68
2021/05/25 11:37:53;;;;;;;7.10;5.77;;;;;;;17.72;74.08;101466.17;1660619;84;21284;-67
2021/05/25 11:40:26;;;;;;;6.30;5.20;;;;;;;17.72;74.00;101457.55;1675614;84;21094;-68
2021/05/25 11:42:53;;;;;;;5.87;4.75;;;;;;;17.72;74.17;101457.55;1708590;82;21686;-67
2021/05/25 11:45:24;;;;;;;8.48;5.40;;;;;;;17.74;73.93;101462.41;1700564;83;21514;-68
2021/05/25 11:47:59;;;;;;;10.95;5.47;;;;;;;17.75;73.97;101457.37;1703803;83;21761;-67
2021/05/25 11:50:26;;;;;;;6.87;5.08;;;;;;;17.78;73.74;101460.87;1697177;82;21080;-67